Time;durP1;ratioP1;P1;durP2;ratioP2;P2;SDS_P1;SDS_P2;PMS_P1;PMS_P2;Temp;Humidity;BMP_temperature;BMP_pressure;BME280_temperature;BME280_humidity;BME280_pressure;Samples;Min_cycle;Max_cycle;Signal;HPM_P1;HPM_P2
2022/12/28 00:00:45;;;;;;;0.25;0.10;;;;;;;;;;4197592;28;20052;-38
2022/12/28 00:02:46;;;;;;;0.25;0.20;;;;;;;;;;4197117;28;20125;-38
2022/12/28 00:04:48;;;;;;;0.00;0.00;;;;;;;;;;4192257;28;20470;-38
2022/12/28 00:06:50;;;;;;;0.05;0.05;;;;;;;;;;4189389;28;20052;-38
2022/12/28 00:08:52;;;;;;;0.65;0.25;;;;;;;;;;4151592;28;20053;-38
2022/12/28 00:11:06;;;;;;;0.55;0.10;;;;;;;;;;4187074;28;20061;-39
2022/12/28 00:13:07;;;;;;;0.28;0.20;;;;;;;;;;4181043;28;20122;-38
2022/12/28 00:15:09;;;;;;;0.25;0.10;;;;;;;;;;4172555;28;20061;-38
2022/12/28 00:17:10;;;;;;;0.17;0.10;;;;;;;;;;4193335;28;20106;-38
2022/12/28 00:19:14;;;;;;;0.50;0.20;;;;;;;;;;4196969;28;20106;-38
2022/12/28 00:21:15;;;;;;;0.10;0.10;;;;;;;;;;4191867;28;20309;-38
2022/12/28 00:23:16;;;;;;;0.15;0.10;;;;;;;;;;4189428;28;20052;-38
2022/12/28 00:25:18;;;;;;;0.10;0.10;;;;;;;;;;4196677;28;20052;-38
2022/12/28 00:27:19;;;;;;;0.13;0.13;;;;;;;;;;4183292;28;20056;-38
2022/12/28 00:29:22;;;;;;;0.10;0.10;;;;;;;;;;4179412;28;20057;-38
2022/12/28 00:31:24;;;;;;;0.10;0.10;;;;;;;;;;4171472;28;20347;-38
2022/12/28 00:33:26;;;;;;;0.30;0.10;;;;;;;;;;4191985;28;20105;-38
2022/12/28 00:35:27;;;;;;;0.20;0.08;;;;;;;;;;4196098;28;20052;-38
2022/12/28 00:37:28;;;;;;;0.10;0.05;;;;;;;;;;4166480;28;20057;-38
2022/12/28 00:39:30;;;;;;;0.30;0.10;;;;;;;;;;4179839;28;20075;-38
2022/12/28 00:41:31;;;;;;;0.45;0.30;;;;;;;;;;4172805;28;20139;-38
2022/12/28 00:43:33;;;;;;;0.20;0.20;;;;;;;;;;4196895;28;20106;-38
2022/12/28 00:45:35;;;;;;;0.32;0.20;;;;;;;;;;4193727;28;20060;-38
2022/12/28 00:47:36;;;;;;;0.30;0.20;;;;;;;;;;4186269;28;20052;-38
2022/12/28 00:49:39;;;;;;;0.30;0.10;;;;;;;;;;4179077;28;20052;-38
2022/12/28 00:51:41;;;;;;;0.25;0.20;;;;;;;;;;4179162;28;20060;-39
2022/12/28 00:53:43;;;;;;;0.15;0.00;;;;;;;;;;4196435;28;20048;-39
2022/12/28 00:55:44;;;;;;;0.30;0.15;;;;;;;;;;4190773;28;20048;-38
2022/12/28 00:57:45;;;;;;;0.10;0.00;;;;;;;;;;4179150;28;20053;-38
2022/12/28 00:59:47;;;;;;;0.35;0.20;;;;;;;;;;4196576;28;20060;-38
2022/12/28 01:01:49;;;;;;;0.38;0.20;;;;;;;;;;4194464;28;20419;-38
2022/12/28 01:03:50;;;;;;;0.10;0.10;;;;;;;;;;4184652;28;20094;-38
2022/12/28 01:05:52;;;;;;;0.10;0.10;;;;;;;;;;4178217;28;20516;-38
2022/12/28 01:07:53;;;;;;;0.55;0.17;;;;;;;;;;4196744;28;20067;-38
2022/12/28 01:09:55;;;;;;;0.52;0.10;;;;;;;;;;4195375;28;20105;-38
2022/12/28 01:11:56;;;;;;;0.50;0.10;;;;;;;;;;4196259;28;20052;-38
2022/12/28 01:13:59;;;;;;;0.20;0.10;;;;;;;;;;4172029;28;20057;-38
2022/12/28 01:16:09;;;;;;;0.10;0.00;;;;;;;;;;4180084;28;20045;-39
2022/12/28 01:18:11;;;;;;;0.10;0.10;;;;;;;;;;4180461;28;20064;-38
2022/12/28 01:20:12;;;;;;;0.50;0.20;;;;;;;;;;4196279;28;20052;-38
2022/12/28 01:22:16;;;;;;;0.82;0.30;;;;;;;;;;4196373;28;20186;-38
2022/12/28 01:24:18;;;;;;;0.52;0.10;;;;;;;;;;4178113;28;20056;-39
2022/12/28 01:26:20;;;;;;;0.35;0.10;;;;;;;;;;4182052;28;20083;-38
2022/12/28 01:28:21;;;;;;;0.63;0.20;;;;;;;;;;4183249;28;20056;-38
2022/12/28 01:30:22;;;;;;;0.10;0.05;;;;;;;;;;4195931;28;20389;-39
2022/12/28 01:32:24;;;;;;;0.10;0.10;;;;;;;;;;4168737;28;20049;-38
2022/12/28 01:34:25;;;;;;;0.20;0.13;;;;;;;;;;4192482;28;20057;-38
2022/12/28 01:36:33;;;;;;;0.40;0.10;;;;;;;;;;4164525;28;20251;-38
2022/12/28 01:38:35;;;;;;;0.20;0.10;;;;;;;;;;4196114;28;20052;-38
2022/12/28 01:40:36;;;;;;;0.20;0.03;;;;;;;;;;4177896;28;20111;-38
2022/12/28 01:42:38;;;;;;;0.10;0.10;;;;;;;;;;4165414;28;20049;-38
2022/12/28 01:44:42;;;;;;;0.10;0.10;;;;;;;;;;4173660;28;20053;-38
2022/12/28 01:46:55;;;;;;;0.45;0.20;;;;;;;;;;4196027;28;20048;-38
2022/12/28 01:49:29;;;;;;;0.20;0.10;;;;;;;;;;4195768;28;20053;-38
2022/12/28 01:51:33;;;;;;;0.10;0.10;;;;;;;;;;4166270;28;20053;-38
2022/12/28 01:53:35;;;;;;;0.30;0.20;;;;;;;;;;4178205;28;20079;-38
2022/12/28 01:55:39;;;;;;;0.10;0.10;;;;;;;;;;4177526;28;20052;-38
2022/12/28 01:57:53;;;;;;;0.10;0.10;;;;;;;;;;4176303;28;20095;-38
2022/12/28 02:00:02;;;;;;;0.10;0.10;;;;;;;;;;4135147;28;20057;-38
2022/12/28 02:02:14;;;;;;;0.28;0.10;;;;;;;;;;4179302;28;20472;-39
2022/12/28 02:04:16;;;;;;;0.52;0.10;;;;;;;;;;4187004;28;20052;-38
2022/12/28 02:06:19;;;;;;;0.40;0.13;;;;;;;;;;4161976;28;20132;-38
2022/12/28 02:08:26;;;;;;;0.00;0.00;;;;;;;;;;4194730;28;20048;-38
2022/12/28 02:10:28;;;;;;;0.47;0.10;;;;;;;;;;4190734;28;20424;-38
2022/12/28 02:12:31;;;;;;;0.10;0.10;;;;;;;;;;4175838;28;20488;-38
2022/12/28 02:14:33;;;;;;;1.25;0.20;;;;;;;;;;4166791;28;20057;-38
2022/12/28 02:16:35;;;;;;;0.10;0.10;;;;;;;;;;4169774;28;20044;-39
2022/12/28 02:18:37;;;;;;;0.15;0.10;;;;;;;;;;4195591;28;20581;-38
2022/12/28 02:21:17;;;;;;;0.22;0.03;;;;;;;;;;4180693;28;20057;-38
2022/12/28 02:23:33;;;;;;;0.20;0.20;;;;;;;;;;4188987;28;20067;-38
2022/12/28 02:25:56;;;;;;;0.60;0.10;;;;;;;;;;4175631;28;20118;-38
2022/12/28 02:28:15;;;;;;;0.20;0.10;;;;;;;;;;4161280;28;20079;-38
2022/12/28 02:30:17;;;;;;;0.10;0.10;;;;;;;;;;4192139;28;20507;-38
2022/12/28 02:32:44;;;;;;;0.43;0.20;;;;;;;;;;4177613;28;20104;-38
2022/12/28 02:34:57;;;;;;;0.10;0.10;;;;;;;;;;4182737;28;20056;-38
2022/12/28 02:37:03;;;;;;;0.32;0.10;;;;;;;;;;4198216;28;20741;-38
2022/12/28 02:39:08;;;;;;;0.45;0.20;;;;;;;;;;4166204;28;20490;-38
2022/12/28 02:41:13;;;;;;;0.20;0.20;;;;;;;;;;4175396;28;20079;-39
2022/12/28 02:43:14;;;;;;;0.45;0.20;;;;;;;;;;4182996;28;20132;-38
2022/12/28 02:50:19;;;;;;;0.10;0.10;;;;;;;;;;4169105;28;20509;-38
2022/12/28 02:52:42;;;;;;;0.10;0.10;;;;;;;;;;4183100;28;20118;-38
2022/12/28 02:57:40;;;;;;;0.00;0.00;;;;;;;;;;4191115;28;20116;-38
2022/12/28 02:59:54;;;;;;;0.30;0.10;;;;;;;;;;4154939;28;20062;-38
2022/12/28 03:02:17;;;;;;;0.10;0.10;;;;;;;;;;4182461;28;20099;-40
2022/12/28 03:04:46;;;;;;;0.40;0.10;;;;;;;;;;4158750;28;20072;-38
2022/12/28 03:09:49;;;;;;;0.80;0.20;;;;;;;;;;4176715;28;20060;-38
2022/12/28 03:12:37;;;;;;;0.22;0.10;;;;;;;;;;4200550;28;20056;-38
2022/12/28 03:14:47;;;;;;;0.20;0.17;;;;;;;;;;4190236;28;20103;-38
2022/12/28 03:31:08;;;;;;;0.10;0.05;;;;;;;;;;4172517;28;20052;-38
2022/12/28 03:33:19;;;;;;;0.20;0.15;;;;;;;;;;4162956;28;20057;-38
2022/12/28 03:35:30;;;;;;;0.10;0.10;;;;;;;;;;4192583;28;20083;-38
2022/12/28 03:37:37;;;;;;;0.20;0.10;;;;;;;;;;4178772;28;20057;-38
2022/12/28 03:39:51;;;;;;;0.47;0.10;;;;;;;;;;4160086;28;20532;-38
2022/12/28 03:44:49;;;;;;;0.10;0.10;;;;;;;;;;4167594;28;20482;-38
2022/12/28 03:46:59;;;;;;;0.17;0.10;;;;;;;;;;4179365;28;20099;-38
2022/12/28 03:49:01;;;;;;;0.13;0.10;;;;;;;;;;4175900;28;20110;-38
2022/12/28 03:51:03;;;;;;;0.10;0.10;;;;;;;;;;4164376;28;20054;-38
2022/12/28 03:53:07;;;;;;;0.10;0.00;;;;;;;;;;4163573;28;20096;-38
2022/12/28 03:55:10;;;;;;;0.20;0.10;;;;;;;;;;4170902;28;20057;-38
2022/12/28 03:57:12;;;;;;;0.20;0.13;;;;;;;;;;4175382;28;20408;-38
2022/12/28 03:59:17;;;;;;;0.25;0.10;;;;;;;;;;4179597;28;20123;-38
2022/12/28 04:01:23;;;;;;;0.15;0.08;;;;;;;;;;4180113;28;20049;-38
2022/12/28 04:03:25;;;;;;;0.20;0.10;;;;;;;;;;4162521;28;20049;-38
2022/12/28 04:05:26;;;;;;;0.17;0.17;;;;;;;;;;4179497;28;20440;-38
2022/12/28 04:07:27;;;;;;;0.25;0.13;;;;;;;;;;4179273;28;20049;-38
2022/12/28 04:09:31;;;;;;;0.35;0.08;;;;;;;;;;4173240;28;20106;-38
2022/12/28 04:11:32;;;;;;;0.40;0.30;;;;;;;;;;4179421;28;20053;-38
2022/12/28 04:13:35;;;;;;;0.35;0.10;;;;;;;;;;4174657;28;20057;-38
2022/12/28 04:15:54;;;;;;;0.00;0.00;;;;;;;;;;4178812;28;20053;-38
2022/12/28 04:17:55;;;;;;;0.10;0.10;;;;;;;;;;4179463;28;20056;-38
2022/12/28 04:19:57;;;;;;;0.28;0.17;;;;;;;;;;4179219;28;20048;-38
2022/12/28 04:21:58;;;;;;;0.00;0.00;;;;;;;;;;4197420;28;20060;-38
2022/12/28 04:23:59;;;;;;;0.22;0.10;;;;;;;;;;4196602;28;20091;-38
2022/12/28 04:26:10;;;;;;;0.30;0.10;;;;;;;;;;4179555;28;20053;-38
2022/12/28 04:28:11;;;;;;;0.00;0.00;;;;;;;;;;4173398;28;20052;-39
2022/12/28 04:30:35;;;;;;;0.10;0.10;;;;;;;;;;4189621;28;20057;-38
2022/12/28 04:32:36;;;;;;;0.17;0.10;;;;;;;;;;4185524;28;20110;-38
2022/12/28 04:34:39;;;;;;;0.20;0.10;;;;;;;;;;4163449;28;20061;-38
2022/12/28 04:36:45;;;;;;;0.10;0.10;;;;;;;;;;4185028;28;20071;-38
2022/12/28 04:38:49;;;;;;;0.57;0.20;;;;;;;;;;4172516;28;20103;-38
2022/12/28 04:40:50;;;;;;;0.10;0.10;;;;;;;;;;4196829;28;20446;-38
2022/12/28 04:42:52;;;;;;;0.17;0.10;;;;;;;;;;4196960;28;20090;-38
2022/12/28 04:44:53;;;;;;;0.30;0.10;;;;;;;;;;4196739;28;20411;-38
2022/12/28 04:46:54;;;;;;;0.30;0.10;;;;;;;;;;4196847;28;20045;-38
2022/12/28 04:48:55;;;;;;;0.35;0.10;;;;;;;;;;4196606;28;20056;-39
2022/12/28 04:50:57;;;;;;;0.50;0.10;;;;;;;;;;4196563;28;20206;-38
2022/12/28 04:52:59;;;;;;;0.10;0.10;;;;;;;;;;4196740;28;20098;-38
2022/12/28 04:55:00;;;;;;;0.10;0.10;;;;;;;;;;4178297;28;20106;-38
2022/12/28 04:57:01;;;;;;;0.10;0.10;;;;;;;;;;4196278;28;20446;-38
2022/12/28 04:59:02;;;;;;;0.20;0.15;;;;;;;;;;4196400;28;20082;-38
2022/12/28 05:01:07;;;;;;;0.20;0.00;;;;;;;;;;4178855;28;20106;-38
2022/12/28 05:03:08;;;;;;;0.10;0.10;;;;;;;;;;4196378;28;20057;-38
2022/12/28 05:05:09;;;;;;;0.10;0.10;;;;;;;;;;4190472;28;20553;-38
2022/12/28 05:07:11;;;;;;;0.28;0.10;;;;;;;;;;4183308;28;20049;-38
2022/12/28 05:09:12;;;;;;;0.10;0.10;;;;;;;;;;4195748;28;20056;-38
2022/12/28 05:11:17;;;;;;;0.20;0.10;;;;;;;;;;4196367;28;20056;-38
2022/12/28 05:13:18;;;;;;;0.65;0.10;;;;;;;;;;4188077;28;20082;-38
2022/12/28 05:15:19;;;;;;;0.10;0.10;;;;;;;;;;4192243;28;20052;-38
2022/12/28 05:17:20;;;;;;;0.17;0.10;;;;;;;;;;4178213;28;20051;-38
2022/12/28 05:19:22;;;;;;;0.00;0.00;;;;;;;;;;4167122;28;20423;-38
2022/12/28 05:21:26;;;;;;;0.05;0.05;;;;;;;;;;4195387;28;20079;-38
2022/12/28 05:23:28;;;;;;;0.38;0.10;;;;;;;;;;4196491;28;20430;-38
2022/12/28 05:25:30;;;;;;;0.00;0.00;;;;;;;;;;4195813;28;20056;-38
2022/12/28 05:27:31;;;;;;;0.43;0.30;;;;;;;;;;4196337;28;20072;-38
2022/12/28 05:29:33;;;;;;;0.10;0.10;;;;;;;;;;4177942;28;20052;-38
2022/12/28 05:31:34;;;;;;;0.20;0.10;;;;;;;;;;4196234;28;20056;-38
2022/12/28 05:33:36;;;;;;;0.60;0.10;;;;;;;;;;4195926;28;20488;-38
2022/12/28 05:35:38;;;;;;;0.57;0.13;;;;;;;;;;4195843;28;20498;-38
2022/12/28 05:37:39;;;;;;;0.00;0.00;;;;;;;;;;4195781;28;20048;-37
2022/12/28 05:39:41;;;;;;;0.20;0.10;;;;;;;;;;4195545;28;20125;-38
2022/12/28 05:41:42;;;;;;;0.10;0.10;;;;;;;;;;4195962;28;20052;-38
2022/12/28 05:43:44;;;;;;;0.20;0.13;;;;;;;;;;4182169;28;20419;-38
2022/12/28 05:45:45;;;;;;;0.10;0.10;;;;;;;;;;4195800;28;20052;-38
2022/12/28 05:47:47;;;;;;;0.30;0.10;;;;;;;;;;4196279;28;20057;-38
2022/12/28 05:49:48;;;;;;;0.40;0.20;;;;;;;;;;4196094;28;20055;-38
2022/12/28 05:51:50;;;;;;;0.43;0.22;;;;;;;;;;4177765;28;20091;-38
2022/12/28 05:53:52;;;;;;;0.15;0.10;;;;;;;;;;4195434;28;20416;-37
2022/12/28 05:56:01;;;;;;;0.20;0.10;;;;;;;;;;4189877;28;20098;-38
2022/12/28 05:58:04;;;;;;;0.20;0.10;;;;;;;;;;4195808;28;20121;-37
2022/12/28 06:00:07;;;;;;;0.60;0.25;;;;;;;;;;4194599;28;20056;-37
2022/12/28 06:02:15;;;;;;;;;;;;;;;;;;4184217;28;20056;-38
2022/12/28 06:04:18;;;;;;;0.35;0.10;;;;;;;;;;4193411;28;19942;-37
2022/12/28 06:06:19;;;;;;;0.68;0.15;;;;;;;;;;4174290;28;20489;-38
2022/12/28 06:08:21;;;;;;;0.30;0.10;;;;;;;;;;4192854;28;20114;-38
2022/12/28 06:10:22;;;;;;;0.43;0.13;;;;;;;;;;4192859;28;20526;-38
2022/12/28 06:12:23;;;;;;;0.32;0.20;;;;;;;;;;4179982;28;20056;-39
2022/12/28 06:14:25;;;;;;;0.15;0.15;;;;;;;;;;4193584;28;20106;-38
2022/12/28 06:16:29;;;;;;;0.28;0.10;;;;;;;;;;4166025;28;20468;-38
2022/12/28 06:18:30;;;;;;;0.70;0.17;;;;;;;;;;4182859;28;20060;-38
2022/12/28 06:20:32;;;;;;;0.70;0.20;;;;;;;;;;4192146;28;20478;-38
2022/12/28 06:22:33;;;;;;;0.52;0.20;;;;;;;;;;4175863;28;20108;-38
2022/12/28 06:24:35;;;;;;;0.40;0.25;;;;;;;;;;4185116;28;20052;-38
2022/12/28 06:26:37;;;;;;;0.40;0.13;;;;;;;;;;4193269;28;20492;-38
2022/12/28 06:28:39;;;;;;;0.30;0.10;;;;;;;;;;4175654;28;20049;-38
2022/12/28 06:30:40;;;;;;;0.50;0.20;;;;;;;;;;4193318;28;20060;-38
2022/12/28 06:32:41;;;;;;;0.20;0.10;;;;;;;;;;4193178;28;20060;-38
2022/12/28 06:34:43;;;;;;;0.10;0.10;;;;;;;;;;4184967;28;20121;-38
2022/12/28 06:36:45;;;;;;;0.10;0.10;;;;;;;;;;4174826;28;20050;-38
2022/12/28 06:38:48;;;;;;;0.73;0.20;;;;;;;;;;4175580;28;20431;-39
2022/12/28 06:40:49;;;;;;;0.30;0.20;;;;;;;;;;4192962;28;20110;-38
2022/12/28 06:42:54;;;;;;;0.20;0.13;;;;;;;;;;4193182;28;20451;-38
2022/12/28 06:44:55;;;;;;;1.02;0.20;;;;;;;;;;4192966;28;20466;-38
2022/12/28 06:46:56;;;;;;;2.08;0.40;;;;;;;;;;4193607;28;20110;-38
2022/12/28 06:48:58;;;;;;;0.30;0.10;;;;;;;;;;4192753;28;20056;-38
2022/12/28 06:51:00;;;;;;;1.00;0.40;;;;;;;;;;4192944;28;20059;-38
2022/12/28 06:53:02;;;;;;;0.75;0.40;;;;;;;;;;4193291;28;20073;-38
2022/12/28 06:55:03;;;;;;;0.30;0.30;;;;;;;;;;4192853;28;20060;-38
2022/12/28 06:57:04;;;;;;;0.38;0.20;;;;;;;;;;4193207;28;20115;-38
2022/12/28 06:59:06;;;;;;;0.80;0.52;;;;;;;;;;4192974;28;20503;-38
2022/12/28 07:01:19;;;;;;;0.20;0.20;;;;;;;;;;4188144;28;20060;-38
2022/12/28 07:03:22;;;;;;;0.10;0.10;;;;;;;;;;4185987;28;20071;-38
2022/12/28 07:05:23;;;;;;;0.45;0.17;;;;;;;;;;4187357;28;20152;-38
2022/12/28 07:07:25;;;;;;;0.90;0.40;;;;;;;;;;4192586;28;20052;-38
2022/12/28 07:09:26;;;;;;;0.52;0.20;;;;;;;;;;4192410;28;20063;-38
2022/12/28 07:11:27;;;;;;;0.17;0.17;;;;;;;;;;4192929;28;20701;-38
2022/12/28 07:13:29;;;;;;;0.50;0.30;;;;;;;;;;4169866;28;20099;-38
2022/12/28 07:15:31;;;;;;;0.20;0.20;;;;;;;;;;4192700;28;20163;-39
2022/12/28 07:17:32;;;;;;;1.75;0.20;;;;;;;;;;4193200;28;20094;-38
2022/12/28 07:19:33;;;;;;;0.32;0.20;;;;;;;;;;4193257;28;20105;-38
2022/12/28 07:21:37;;;;;;;0.30;0.20;;;;;;;;;;4196052;28;20053;-37
2022/12/28 07:23:38;;;;;;;0.50;0.20;;;;;;;;;;4195925;28;20056;-37
2022/12/28 07:25:39;;;;;;;0.28;0.17;;;;;;;;;;4195474;28;20060;-38
2022/12/28 07:27:40;;;;;;;0.70;0.20;;;;;;;;;;4195707;28;20060;-38
2022/12/28 07:29:42;;;;;;;0.40;0.20;;;;;;;;;;4195963;28;20068;-38
2022/12/28 07:31:43;;;;;;;0.52;0.20;;;;;;;;;;4196000;28;20052;-38
2022/12/28 07:33:46;;;;;;;3.92;0.40;;;;;;;;;;4195695;28;20063;-38
2022/12/28 07:35:47;;;;;;;0.55;0.20;;;;;;;;;;4195454;28;20052;-38
2022/12/28 07:37:49;;;;;;;0.50;0.20;;;;;;;;;;4195652;28;20097;-38
2022/12/28 07:39:50;;;;;;;0.45;0.30;;;;;;;;;;4188169;28;20059;-38
2022/12/28 07:41:52;;;;;;;0.28;0.15;;;;;;;;;;4194753;28;20557;-38
2022/12/28 07:43:56;;;;;;;3.38;0.40;;;;;;;;;;4195477;28;20488;-38
2022/12/28 07:46:01;;;;;;;1.05;0.10;;;;;;;;;;4178172;28;20123;-38
2022/12/28 07:48:02;;;;;;;1.33;0.25;;;;;;;;;;4195626;28;20056;-38
2022/12/28 07:50:04;;;;;;;0.40;0.30;;;;;;;;;;4195092;28;20110;-38
2022/12/28 07:52:06;;;;;;;0.38;0.25;;;;;;;;;;4173030;28;20128;-38
2022/12/28 07:54:07;;;;;;;1.25;0.30;;;;;;;;;;4181717;28;20057;-38
2022/12/28 07:56:09;;;;;;;1.38;0.40;;;;;;;;;;4195543;28;20444;-38
2022/12/28 07:58:10;;;;;;;0.75;0.40;;;;;;;;;;4177540;28;20091;-38
2022/12/28 08:00:11;;;;;;;0.52;0.22;;;;;;;;;;4195522;28;20460;-38
2022/12/28 08:02:16;;;;;;;2.40;0.50;;;;;;;;;;4173999;28;20056;-38
2022/12/28 08:04:17;;;;;;;1.10;0.30;;;;;;;;;;4181393;28;20056;-38
2022/12/28 08:06:19;;;;;;;1.95;0.20;;;;;;;;;;4166908;28;20064;-38
2022/12/28 08:08:20;;;;;;;2.13;0.40;;;;;;;;;;4183116;28;20099;-37
2022/12/28 08:10:22;;;;;;;0.60;0.20;;;;;;;;;;4176220;28;20142;-38
2022/12/28 08:12:23;;;;;;;0.50;0.22;;;;;;;;;;4192045;28;20526;-38
2022/12/28 08:14:24;;;;;;;0.20;0.20;;;;;;;;;;4191458;28;20561;-37
2022/12/28 08:16:28;;;;;;;1.02;0.22;;;;;;;;;;4171262;28;20103;-37
2022/12/28 08:18:30;;;;;;;0.25;0.20;;;;;;;;;;4184528;28;20056;-37
2022/12/28 08:20:31;;;;;;;2.10;0.50;;;;;;;;;;4165287;28;20437;-38
2022/12/28 08:22:33;;;;;;;3.00;0.40;;;;;;;;;;4171918;28;20057;-37
2022/12/28 08:24:34;;;;;;;1.17;0.30;;;;;;;;;;4189623;28;20159;-37
2022/12/28 08:26:37;;;;;;;1.02;0.40;;;;;;;;;;4187138;28;20056;-37
2022/12/28 08:28:40;;;;;;;2.72;0.30;;;;;;;;;;4184302;28;20454;-37
2022/12/28 08:30:41;;;;;;;2.00;0.60;;;;;;;;;;4189552;28;20558;-38
2022/12/28 08:32:42;;;;;;;0.75;0.38;;;;;;;;;;4184831;28;20458;-37
2022/12/28 08:34:44;;;;;;;2.25;0.40;;;;;;;;;;4189863;28;20117;-37
2022/12/28 08:36:45;;;;;;;2.05;0.40;;;;;;;;;;4183665;28;20052;-37
2022/12/28 08:38:47;;;;;;;1.45;0.50;;;;;;;;;;4183182;28;20056;-37
2022/12/28 08:40:58;;;;;;;1.30;0.40;;;;;;;;;;4184080;28;20068;-38
2022/12/28 08:42:59;;;;;;;2.40;0.75;;;;;;;;;;4169255;28;20127;-37
2022/12/28 08:45:00;;;;;;;2.78;0.40;;;;;;;;;;4182390;28;20064;-37
2022/12/28 08:47:02;;;;;;;1.20;0.40;;;;;;;;;;4184746;28;20056;-38
2022/12/28 08:49:04;;;;;;;3.15;0.70;;;;;;;;;;4185596;28;20056;-37
2022/12/28 08:51:15;;;;;;;3.15;0.50;;;;;;;;;;4162903;28;20082;-37
2022/12/28 08:53:17;;;;;;;2.20;0.45;;;;;;;;;;4157787;28;20057;-38
2022/12/28 08:55:18;;;;;;;3.40;0.43;;;;;;;;;;4181333;28;20486;-37
2022/12/28 08:57:19;;;;;;;2.00;0.40;;;;;;;;;;4189335;28;20110;-37
2022/12/28 08:59:20;;;;;;;0.40;0.30;;;;;;;;;;4180341;28;20433;-37
2022/12/28 09:01:24;;;;;;;1.38;0.40;;;;;;;;;;4176711;28;20053;-37
2022/12/28 09:03:26;;;;;;;1.52;0.50;;;;;;;;;;4184615;28;20059;-37
2022/12/28 09:05:27;;;;;;;1.30;0.38;;;;;;;;;;4186747;28;20044;-36
2022/12/28 09:07:28;;;;;;;2.72;0.35;;;;;;;;;;4181204;28;20109;-39
2022/12/28 09:09:29;;;;;;;0.43;0.30;;;;;;;;;;4188030;28;20106;-40
2022/12/28 09:11:30;;;;;;;2.40;0.32;;;;;;;;;;4188223;28;20467;-40
2022/12/28 09:13:32;;;;;;;1.85;0.88;;;;;;;;;;4184015;28;20495;-40
2022/12/28 09:15:34;;;;;;;0.98;0.35;;;;;;;;;;4180560;28;20056;-39
2022/12/28 09:17:35;;;;;;;0.73;0.32;;;;;;;;;;4183938;28;20048;-39
2022/12/28 09:19:36;;;;;;;2.10;0.50;;;;;;;;;;4182745;28;20056;-40
2022/12/28 09:21:38;;;;;;;0.73;0.30;;;;;;;;;;4184113;28;20438;-40
2022/12/28 09:23:39;;;;;;;1.23;0.40;;;;;;;;;;4187091;28;20487;-39
2022/12/28 09:25:41;;;;;;;2.60;0.32;;;;;;;;;;4166585;28;20095;-40
2022/12/28 09:27:42;;;;;;;1.40;0.30;;;;;;;;;;4166691;28;20057;-40
2022/12/28 09:29:43;;;;;;;2.38;0.55;;;;;;;;;;4163952;28;20084;-40
2022/12/28 09:31:45;;;;;;;1.15;0.57;;;;;;;;;;4186594;28;20060;-40
2022/12/28 09:34:01;;;;;;;1.85;0.50;;;;;;;;;;4170784;28;20501;-39
2022/12/28 09:36:03;;;;;;;1.58;0.50;;;;;;;;;;4185134;28;20445;-39
2022/12/28 09:38:04;;;;;;;1.58;0.40;;;;;;;;;;4153968;28;20053;-40
2022/12/28 09:40:08;;;;;;;1.65;0.40;;;;;;;;;;4179555;28;20057;-40
2022/12/28 09:42:22;;;;;;;1.50;0.50;;;;;;;;;;4165796;28;20063;-40
2022/12/28 09:44:48;;;;;;;2.33;0.40;;;;;;;;;;4179794;28;20118;-39
2022/12/28 09:46:51;;;;;;;1.25;0.35;;;;;;;;;;4178911;28;20458;-37
2022/12/28 09:48:54;;;;;;;1.05;0.40;;;;;;;;;;4184133;28;20052;-38
2022/12/28 09:50:55;;;;;;;1.30;0.43;;;;;;;;;;4169742;28;20467;-38
2022/12/28 09:53:25;;;;;;;1.88;0.47;;;;;;;;;;4187609;28;20052;-38
2022/12/28 09:55:27;;;;;;;0.43;0.38;;;;;;;;;;4166121;28;20116;-38
2022/12/28 09:57:34;;;;;;;1.35;0.30;;;;;;;;;;4184206;28;20068;-38
2022/12/28 09:59:36;;;;;;;1.00;0.60;;;;;;;;;;4185415;28;20431;-38
2022/12/28 10:01:40;;;;;;;1.30;0.60;;;;;;;;;;4183106;28;20052;-40
2022/12/28 10:03:43;;;;;;;1.55;0.30;;;;;;;;;;4149649;28;20139;-38
2022/12/28 10:05:45;;;;;;;0.60;0.40;;;;;;;;;;4182326;28;20503;-39
2022/12/28 10:07:46;;;;;;;0.63;0.40;;;;;;;;;;4186563;28;20051;-38
2022/12/28 10:09:48;;;;;;;0.93;0.50;;;;;;;;;;4185948;28;20060;-38
2022/12/28 10:11:50;;;;;;;0.88;0.30;;;;;;;;;;4182722;28;20056;-38
2022/12/28 10:14:00;;;;;;;1.40;0.30;;;;;;;;;;4185109;28;20060;-38
2022/12/28 10:16:03;;;;;;;1.35;0.43;;;;;;;;;;4182725;28;20535;-39
2022/12/28 10:18:04;;;;;;;0.68;0.20;;;;;;;;;;4170841;28;20060;-40
2022/12/28 10:20:14;;;;;;;0.77;0.50;;;;;;;;;;4181414;28;20090;-39
2022/12/28 10:22:18;;;;;;;0.65;0.30;;;;;;;;;;4173719;28;20083;-38
2022/12/28 10:24:19;;;;;;;0.88;0.50;;;;;;;;;;4167998;28;20053;-37
2022/12/28 10:26:23;;;;;;;0.63;0.25;;;;;;;;;;4180036;28;20103;-39
2022/12/28 10:28:36;;;;;;;2.15;0.43;;;;;;;;;;4164815;28;20059;-38
2022/12/28 10:30:46;;;;;;;0.57;0.40;;;;;;;;;;4180439;28;20052;-43
2022/12/28 10:32:57;;;;;;;;;;;;;;;;;;4188398;28;20137;-38
2022/12/28 10:34:59;;;;;;;0.95;0.30;;;;;;;;;;4170161;28;20303;-38
2022/12/28 10:37:19;;;;;;;0.80;0.28;;;;;;;;;;4183872;28;20064;-38
2022/12/28 10:39:26;;;;;;;0.70;0.40;;;;;;;;;;4167287;28;20060;-38
2022/12/28 10:41:34;;;;;;;0.65;0.20;;;;;;;;;;4176746;28;20049;-38
2022/12/28 10:43:39;;;;;;;0.90;0.45;;;;;;;;;;4168166;28;20389;-39
2022/12/28 10:45:46;;;;;;;1.75;0.38;;;;;;;;;;4167139;28;20056;-38
2022/12/28 10:47:50;;;;;;;0.30;0.20;;;;;;;;;;4166784;28;20496;-39
2022/12/28 10:49:51;;;;;;;0.88;0.30;;;;;;;;;;4180465;28;20065;-39
2022/12/28 10:52:16;;;;;;;0.20;0.17;;;;;;;;;;4180863;28;20052;-37
2022/12/28 10:54:24;;;;;;;1.35;0.50;;;;;;;;;;4161794;28;20118;-38
2022/12/28 10:56:27;;;;;;;0.95;0.38;;;;;;;;;;4191683;28;20114;-37
2022/12/28 10:58:28;;;;;;;1.35;0.50;;;;;;;;;;4187661;28;20259;-38
2022/12/28 11:00:30;;;;;;;1.23;0.60;;;;;;;;;;4183030;28;20087;-38
2022/12/28 11:02:31;;;;;;;0.50;0.30;;;;;;;;;;4168490;28;20352;-38
2022/12/28 11:04:32;;;;;;;1.38;0.40;;;;;;;;;;4189006;28;20060;-37
2022/12/28 11:06:37;;;;;;;0.63;0.40;;;;;;;;;;4171614;28;20049;-38
2022/12/28 11:08:40;;;;;;;0.88;0.20;;;;;;;;;;4169590;28;20412;-37
2022/12/28 11:10:41;;;;;;;1.38;0.57;;;;;;;;;;4167310;28;20123;-38
2022/12/28 11:12:44;;;;;;;2.42;0.57;;;;;;;;;;4188951;28;20056;-38
2022/12/28 11:14:45;;;;;;;1.58;0.50;;;;;;;;;;4189119;28;20052;-37
2022/12/28 11:16:46;;;;;;;2.17;0.55;;;;;;;;;;4204331;28;20105;-37
2022/12/28 11:18:48;;;;;;;0.68;0.52;;;;;;;;;;4206183;28;20487;-37
2022/12/28 11:20:53;;;;;;;0.50;0.30;;;;;;;;;;4202133;28;20055;-37
2022/12/28 11:22:55;;;;;;;0.55;0.40;;;;;;;;;;4204116;28;20471;-37
2022/12/28 11:24:59;;;;;;;0.85;0.50;;;;;;;;;;4201825;28;20190;-37
2022/12/28 11:27:01;;;;;;;0.73;0.30;;;;;;;;;;4200571;28;20083;-37
2022/12/28 11:29:03;;;;;;;1.02;0.50;;;;;;;;;;4171787;28;20069;-37
2022/12/28 11:31:04;;;;;;;0.88;0.30;;;;;;;;;;4185705;28;20052;-37
2022/12/28 11:33:08;;;;;;;2.08;0.35;;;;;;;;;;4187699;28;20460;-45
2022/12/28 11:35:17;;;;;;;0.45;0.40;;;;;;;;;;4187252;28;20091;-37
2022/12/28 11:37:18;;;;;;;2.13;0.50;;;;;;;;;;4206384;28;20055;-37
2022/12/28 11:39:25;;;;;;;1.15;0.40;;;;;;;;;;4201760;28;20612;-38
2022/12/28 11:41:27;;;;;;;1.08;0.30;;;;;;;;;;4204167;28;20506;-37
2022/12/28 11:43:28;;;;;;;1.65;0.50;;;;;;;;;;4199233;28;20700;-37
2022/12/28 11:45:52;;;;;;;0.68;0.35;;;;;;;;;;4202847;28;20061;-37
2022/12/28 11:48:31;;;;;;;0.68;0.43;;;;;;;;;;4203671;28;20063;-37
2022/12/28 11:50:33;;;;;;;1.13;0.43;;;;;;;;;;4203972;28;20056;-37
2022/12/28 11:52:44;;;;;;;1.20;0.50;;;;;;;;;;4203903;28;20097;-37
2022/12/28 11:54:59;;;;;;;0.52;0.30;;;;;;;;;;4203641;28;20114;-38
2022/12/28 11:57:00;;;;;;;1.52;0.22;;;;;;;;;;4190438;28;20385;-38
2022/12/28 11:59:04;;;;;;;0.57;0.50;;;;;;;;;;4201554;28;20117;-37
2022/12/28 12:01:29;;;;;;;0.93;0.50;;;;;;;;;;4203953;28;20052;-37
2022/12/28 12:04:26;;;;;;;0.50;0.45;;;;;;;;;;4197045;28;20506;-37
2022/12/28 12:06:53;;;;;;;0.32;0.30;;;;;;;;;;4143212;28;20065;-37
2022/12/28 12:08:54;;;;;;;0.57;0.55;;;;;;;;;;4126660;28;20581;-39
2022/12/28 12:11:19;;;;;;;0.68;0.30;;;;;;;;;;4153787;28;20311;-37
2022/12/28 12:13:24;;;;;;;0.93;0.43;;;;;;;;;;4185627;28;20631;-37
2022/12/28 12:15:45;;;;;;;2.05;0.40;;;;;;;;;;4198507;28;20396;-37
2022/12/28 12:18:04;;;;;;;1.00;0.40;;;;;;;;;;4205062;28;20052;-37
2022/12/28 12:20:37;;;;;;;1.42;0.60;;;;;;;;;;4185533;28;20091;-37
2022/12/28 12:22:56;;;;;;;0.63;0.50;;;;;;;;;;4186564;28;20404;-37
2022/12/28 12:25:21;;;;;;;0.70;0.52;;;;;;;;;;4187167;28;20048;-38
2022/12/28 12:27:24;;;;;;;1.00;0.57;;;;;;;;;;4184534;28;20407;-37
2022/12/28 12:29:41;;;;;;;0.52;0.30;;;;;;;;;;4201894;28;20113;-37
2022/12/28 12:31:46;;;;;;;1.02;0.52;;;;;;;;;;4184131;28;20099;-37
2022/12/28 12:33:49;;;;;;;0.90;0.55;;;;;;;;;;4198273;28;20074;-36
2022/12/28 12:36:22;;;;;;;1.13;0.70;;;;;;;;;;4200656;28;20091;-37
2022/12/28 12:38:36;;;;;;;0.57;0.40;;;;;;;;;;4204349;28;20056;-36
2022/12/28 12:40:56;;;;;;;0.93;0.40;;;;;;;;;;4201421;28;20143;-35
2022/12/28 12:43:16;;;;;;;0.82;0.40;;;;;;;;;;4206460;28;20093;-35
2022/12/28 12:45:31;;;;;;;2.17;0.40;;;;;;;;;;4207456;28;20055;-35
2022/12/28 12:47:59;;;;;;;1.05;0.60;;;;;;;;;;4197535;28;20106;-36
2022/12/28 12:50:34;;;;;;;1.80;0.60;;;;;;;;;;4203549;28;20052;-36
2022/12/28 12:52:41;;;;;;;2.60;0.40;;;;;;;;;;4195949;28;20052;-36
2022/12/28 12:55:13;;;;;;;0.77;0.50;;;;;;;;;;4204758;28;20047;-36
2022/12/28 12:57:21;;;;;;;1.63;0.50;;;;;;;;;;4204665;28;20545;-37
2022/12/28 13:00:00;;;;;;;1.90;0.60;;;;;;;;;;4192311;28;20331;-37